TimeEST,TemperatureF,Dew PointF,Humidity,Sea Level PressureIn,VisibilityMPH,Wind Direction,Wind SpeedMPH,Gust SpeedMPH,PrecipitationIn,Events,Conditions,WindDirDegrees,DateUTC
12:54 AM,44.1,30.0,58,29.96,10.0,South,5.8,-,N/A,,Partly Cloudy,190,2012-11-23 05:54:00
1:54 AM,45.0,28.9,53,29.93,10.0,South,6.9,-,N/A,,Partly Cloudy,190,2012-11-23 06:54:00
2:54 AM,46.9,28.9,50,29.88,10.0,South,10.4,-,N/A,,Partly Cloudy,190,2012-11-23 07:54:00
3:54 AM,48.0,30.0,50,29.86,10.0,South,11.5,-,N/A,,Partly Cloudy,190,2012-11-23 08:54:00
4:54 AM,51.1,30.0,44,29.82,10.0,SSW,13.8,-,N/A,,Scattered Clouds,200,2012-11-23 09:54:00
5:54 AM,51.1,30.9,46,29.79,10.0,South,12.7,23.0,N/A,,Scattered Clouds,190,2012-11-23 10:54:00
6:54 AM,51.8,30.2,44,29.75,10.0,SSW,13.8,21.9,N/A,,Mostly Cloudy,200,2012-11-23 11:54:00
7:54 AM,50.0,32.0,50,29.75,10.0,SSW,11.5,-,N/A,,Mostly Cloudy,210,2012-11-23 12:54:00
8:54 AM,52.0,33.1,49,29.73,10.0,SSW,17.3,24.2,N/A,,Mostly Cloudy,200,2012-11-23 13:54:00
9:54 AM,54.0,34.0,47,29.72,10.0,SSW,13.8,24.2,N/A,,Overcast,210,2012-11-23 14:54:00
10:25 AM,53.6,35.6,51,29.71,10.0,SSW,11.5,21.9,N/A,,Overcast,210,2012-11-23 15:25:00
10:54 AM,53.1,41.0,64,29.71,10.0,SW,20.7,26.5,0.00,Rain,Light Rain,230,2012-11-23 15:54:00
11:54 AM,53.1,43.0,69,29.68,10.0,SSW,20.7,25.3,0.00,Rain,Light Rain,210,2012-11-23 16:54:00
12:54 PM,53.1,44.1,71,29.67,10.0,SW,18.4,24.2,0.00,,Overcast,220,2012-11-23 17:54:00
1:54 PM,54.0,42.1,64,29.66,10.0,SW,16.1,-,N/A,,Mostly Cloudy,230,2012-11-23 18:54:00
2:07 PM,51.8,42.8,71,29.65,10.0,West,20.7,35.7,0.00,Rain,Light Rain,260,2012-11-23 19:07:00
2:28 PM,50.0,41.0,71,29.66,10.0,WSW,19.6,28.8,0.00,,Mostly Cloudy,250,2012-11-23 19:28:00
2:54 PM,50.0,39.9,68,29.66,10.0,WSW,19.6,26.5,0.00,,Mostly Cloudy,250,2012-11-23 19:54:00
3:54 PM,48.0,35.1,61,29.68,10.0,WSW,21.9,31.1,N/A,,Scattered Clouds,240,2012-11-23 20:54:00
4:54 PM,46.0,32.0,58,29.70,10.0,West,18.4,32.2,N/A,,Scattered Clouds,260,2012-11-23 21:54:00
5:54 PM,44.1,32.0,63,29.70,10.0,WSW,13.8,24.2,N/A,,Scattered Clouds,250,2012-11-23 22:54:00
6:54 PM,44.1,30.9,60,29.69,10.0,WSW,21.9,31.1,N/A,,Overcast,250,2012-11-23 23:54:00
7:54 PM,41.0,30.9,67,29.72,10.0,West,28.8,40.3,N/A,,Mostly Cloudy,260,2012-11-24 00:54:00
8:54 PM,37.9,30.9,76,29.74,10.0,WSW,20.7,29.9,0.00,,Mostly Cloudy,240,2012-11-24 01:54:00
9:05 PM,37.4,30.2,75,29.73,10.0,WSW,20.7,28.8,N/A,,Mostly Cloudy,250,2012-11-24 02:05:00
9:54 PM,37.0,27.0,67,29.75,10.0,WSW,20.7,34.5,0.00,Snow,Light Snow,250,2012-11-24 02:54:00
10:54 PM,36.0,24.1,62,29.74,10.0,WSW,15.0,29.9,0.00,,Overcast,250,2012-11-24 03:54:00
11:54 PM,36.0,23.0,59,29.74,10.0,WSW,21.9,32.2,N/A,,Overcast,250,2012-11-24 04:54:00